Terminal Aerodrome Forecast
Issued by NWS

Home | Current Version | Previous Version | Text Only | Print | Product List | Glossary On
Versions: 1 2 3 4 5 6 7 8 9 10 11 12 13 14 15 16 17 18 19 20 21 22 23
000
FTUS46 KPDT 260259 AAB
TAFBDN
TAF AMD
KBDN 260259Z 2603/2624 24014KT 5SM -SN BKN020 OVC040
      TEMPO 2603/2606 1SM -SN BKN001 OVC040
     FM260600 30010KT 6SM BR BKN020 BKN060 OVC120
     FM260900 30008KT P6SM SCT025 BKN060
     FM261500 VRB05KT P6SM BKN120=

USA.gov is the U.S. government's official web portal to all federal, state and local government web resources and services.